sensor_id;sensor_type;location;lat;lon;timestamp;P1;durP1;ratioP1;P2;durP2;ratioP2
3847;SDS011;1939;48.720;9.166;2023-02-17T00:00:05;9.30;;;4.50;;
3847;SDS011;1939;48.720;9.166;2023-02-17T00:02:31;9.60;;;4.60;;
3847;SDS011;1939;48.720;9.166;2023-02-17T00:04:57;10.80;;;5.13;;
3847;SDS011;1939;48.720;9.166;2023-02-17T00:07:22;10.87;;;4.73;;
3847;SDS011;1939;48.720;9.166;2023-02-17T00:09:47;7.13;;;4.40;;
3847;SDS011;1939;48.720;9.166;2023-02-17T00:12:12;11.63;;;4.33;;
3847;SDS011;1939;48.720;9.166;2023-02-17T00:14:38;9.13;;;5.00;;
3847;SDS011;1939;48.720;9.166;2023-02-17T00:17:03;8.47;;;4.00;;
3847;SDS011;1939;48.720;9.166;2023-02-17T00:19:29;11.50;;;4.20;;
3847;SDS011;1939;48.720;9.166;2023-02-17T00:22:00;11.47;;;4.17;;
3847;SDS011;1939;48.720;9.166;2023-02-17T00:24:29;7.77;;;4.17;;
3847;SDS011;1939;48.720;9.166;2023-02-17T00:26:54;8.43;;;4.20;;
3847;SDS011;1939;48.720;9.166;2023-02-17T00:29:20;9.77;;;5.00;;
3847;SDS011;1939;48.720;9.166;2023-02-17T00:31:45;6.70;;;4.40;;
3847;SDS011;1939;48.720;9.166;2023-02-17T00:34:11;9.97;;;4.37;;
3847;SDS011;1939;48.720;9.166;2023-02-17T00:36:36;12.70;;;5.40;;
3847;SDS011;1939;48.720;9.166;2023-02-17T00:39:02;15.67;;;4.60;;
3847;SDS011;1939;48.720;9.166;2023-02-17T00:41:27;7.93;;;4.60;;
3847;SDS011;1939;48.720;9.166;2023-02-17T00:43:53;10.93;;;4.23;;
3847;SDS011;1939;48.720;9.166;2023-02-17T00:46:18;8.37;;;4.00;;
3847;SDS011;1939;48.720;9.166;2023-02-17T00:48:44;8.20;;;4.43;;
3847;SDS011;1939;48.720;9.166;2023-02-17T00:51:09;6.13;;;3.73;;
3847;SDS011;1939;48.720;9.166;2023-02-17T00:53:35;12.90;;;5.30;;
3847;SDS011;1939;48.720;9.166;2023-02-17T00:56:00;9.77;;;4.57;;
3847;SDS011;1939;48.720;9.166;2023-02-17T00:58:25;5.47;;;3.73;;
3847;SDS011;1939;48.720;9.166;2023-02-17T01:00:50;6.97;;;4.10;;
3847;SDS011;1939;48.720;9.166;2023-02-17T01:03:16;11.10;;;4.30;;
3847;SDS011;1939;48.720;9.166;2023-02-17T01:05:43;14.67;;;4.73;;
3847;SDS011;1939;48.720;9.166;2023-02-17T01:08:08;5.93;;;4.20;;
3847;SDS011;1939;48.720;9.166;2023-02-17T01:10:37;5.97;;;3.63;;
3847;SDS011;1939;48.720;9.166;2023-02-17T01:13:02;7.00;;;3.80;;
3847;SDS011;1939;48.720;9.166;2023-02-17T01:15:28;10.57;;;4.20;;
3847;SDS011;1939;48.720;9.166;2023-02-17T01:17:53;7.00;;;3.93;;
3847;SDS011;1939;48.720;9.166;2023-02-17T01:20:18;7.67;;;4.00;;
3847;SDS011;1939;48.720;9.166;2023-02-17T01:22:43;6.20;;;4.13;;
3847;SDS011;1939;48.720;9.166;2023-02-17T01:25:08;4.73;;;3.47;;
3847;SDS011;1939;48.720;9.166;2023-02-17T01:27:34;7.83;;;4.60;;
3847;SDS011;1939;48.720;9.166;2023-02-17T01:29:59;3.63;;;2.83;;
3847;SDS011;1939;48.720;9.166;2023-02-17T01:32:24;6.43;;;4.07;;
3847;SDS011;1939;48.720;9.166;2023-02-17T01:34:49;6.43;;;3.70;;
3847;SDS011;1939;48.720;9.166;2023-02-17T01:37:15;10.53;;;3.83;;
3847;SDS011;1939;48.720;9.166;2023-02-17T01:39:40;8.80;;;4.37;;
3847;SDS011;1939;48.720;9.166;2023-02-17T01:42:05;8.23;;;3.73;;
3847;SDS011;1939;48.720;9.166;2023-02-17T01:44:31;4.70;;;3.60;;
3847;SDS011;1939;48.720;9.166;2023-02-17T01:46:56;16.03;;;4.63;;
3847;SDS011;1939;48.720;9.166;2023-02-17T01:49:32;6.03;;;3.33;;
3847;SDS011;1939;48.720;9.166;2023-02-17T01:52:13;8.87;;;3.47;;
3847;SDS011;1939;48.720;9.166;2023-02-17T01:54:57;6.57;;;3.70;;
3847;SDS011;1939;48.720;9.166;2023-02-17T01:57:24;8.57;;;4.40;;
3847;SDS011;1939;48.720;9.166;2023-02-17T01:59:51;5.97;;;3.53;;
3847;SDS011;1939;48.720;9.166;2023-02-17T02:02:17;6.50;;;3.30;;
3847;SDS011;1939;48.720;9.166;2023-02-17T02:04:42;8.33;;;3.67;;
3847;SDS011;1939;48.720;9.166;2023-02-17T02:07:31;7.23;;;3.63;;
3847;SDS011;1939;48.720;9.166;2023-02-17T02:09:55;9.47;;;3.43;;
3847;SDS011;1939;48.720;9.166;2023-02-17T02:12:28;8.80;;;4.33;;
3847;SDS011;1939;48.720;9.166;2023-02-17T02:14:55;8.57;;;3.47;;
3847;SDS011;1939;48.720;9.166;2023-02-17T02:20:39;6.43;;;3.00;;
3847;SDS011;1939;48.720;9.166;2023-02-17T02:23:12;8.63;;;4.30;;
3847;SDS011;1939;48.720;9.166;2023-02-17T02:26:01;8.83;;;4.07;;
3847;SDS011;1939;48.720;9.166;2023-02-17T02:28:53;8.23;;;3.57;;
3847;SDS011;1939;48.720;9.166;2023-02-17T02:33:50;7.60;;;3.30;;
3847;SDS011;1939;48.720;9.166;2023-02-17T02:36:17;5.53;;;4.17;;
3847;SDS011;1939;48.720;9.166;2023-02-17T02:38:54;7.57;;;4.30;;
3847;SDS011;1939;48.720;9.166;2023-02-17T02:41:32;7.20;;;3.17;;
3847;SDS011;1939;48.720;9.166;2023-02-17T02:43:58;8.93;;;4.73;;
3847;SDS011;1939;48.720;9.166;2023-02-17T02:46:23;7.93;;;3.70;;
3847;SDS011;1939;48.720;9.166;2023-02-17T02:48:48;6.33;;;3.30;;
3847;SDS011;1939;48.720;9.166;2023-02-17T02:53:54;6.17;;;3.40;;
3847;SDS011;1939;48.720;9.166;2023-02-17T03:01:57;9.43;;;4.00;;
3847;SDS011;1939;48.720;9.166;2023-02-17T03:06:52;4.25;;;3.00;;
3847;SDS011;1939;48.720;9.166;2023-02-17T03:09:19;14.07;;;3.67;;
3847;SDS011;1939;48.720;9.166;2023-02-17T03:11:45;5.93;;;4.03;;
3847;SDS011;1939;48.720;9.166;2023-02-17T03:14:12;9.80;;;3.43;;
3847;SDS011;1939;48.720;9.166;2023-02-17T03:16:38;5.80;;;3.03;;
3847;SDS011;1939;48.720;9.166;2023-02-17T03:19:04;6.87;;;3.50;;
3847;SDS011;1939;48.720;9.166;2023-02-17T03:21:32;5.20;;;3.53;;
3847;SDS011;1939;48.720;9.166;2023-02-17T03:23:59;13.63;;;3.40;;
3847;SDS011;1939;48.720;9.166;2023-02-17T03:26:24;15.03;;;3.10;;
3847;SDS011;1939;48.720;9.166;2023-02-17T03:28:49;6.30;;;3.73;;
3847;SDS011;1939;48.720;9.166;2023-02-17T03:31:14;9.53;;;2.97;;
3847;SDS011;1939;48.720;9.166;2023-02-17T03:33:39;9.87;;;3.80;;
3847;SDS011;1939;48.720;9.166;2023-02-17T03:36:05;9.93;;;3.73;;
3847;SDS011;1939;48.720;9.166;2023-02-17T03:38:30;7.60;;;3.73;;
3847;SDS011;1939;48.720;9.166;2023-02-17T03:40:55;4.53;;;3.20;;
3847;SDS011;1939;48.720;9.166;2023-02-17T03:43:20;5.87;;;3.53;;
3847;SDS011;1939;48.720;9.166;2023-02-17T03:45:45;8.27;;;4.00;;
3847;SDS011;1939;48.720;9.166;2023-02-17T03:48:11;7.20;;;3.50;;
3847;SDS011;1939;48.720;9.166;2023-02-17T03:50:36;8.40;;;3.97;;
3847;SDS011;1939;48.720;9.166;2023-02-17T03:53:01;7.87;;;3.60;;
3847;SDS011;1939;48.720;9.166;2023-02-17T03:55:26;5.63;;;3.10;;
3847;SDS011;1939;48.720;9.166;2023-02-17T03:57:51;13.53;;;4.00;;
3847;SDS011;1939;48.720;9.166;2023-02-17T04:00:17;9.77;;;4.13;;
3847;SDS011;1939;48.720;9.166;2023-02-17T04:02:42;5.27;;;3.30;;
3847;SDS011;1939;48.720;9.166;2023-02-17T04:05:07;15.73;;;3.90;;
3847;SDS011;1939;48.720;9.166;2023-02-17T04:07:32;8.50;;;3.50;;
3847;SDS011;1939;48.720;9.166;2023-02-17T04:09:57;11.03;;;3.63;;
3847;SDS011;1939;48.720;9.166;2023-02-17T04:12:23;7.10;;;3.50;;
3847;SDS011;1939;48.720;9.166;2023-02-17T04:14:48;6.93;;;3.60;;
3847;SDS011;1939;48.720;9.166;2023-02-17T04:17:13;6.93;;;3.60;;
3847;SDS011;1939;48.720;9.166;2023-02-17T04:19:38;6.30;;;4.00;;
3847;SDS011;1939;48.720;9.166;2023-02-17T04:22:03;13.80;;;3.87;;
3847;SDS011;1939;48.720;9.166;2023-02-17T04:24:32;8.80;;;5.10;;
3847;SDS011;1939;48.720;9.166;2023-02-17T04:26:57;6.87;;;3.80;;
3847;SDS011;1939;48.720;9.166;2023-02-17T04:29:23;6.17;;;3.33;;
3847;SDS011;1939;48.720;9.166;2023-02-17T04:31:48;6.97;;;4.40;;
3847;SDS011;1939;48.720;9.166;2023-02-17T04:34:13;6.23;;;3.67;;
3847;SDS011;1939;48.720;9.166;2023-02-17T04:36:38;7.97;;;4.13;;
3847;SDS011;1939;48.720;9.166;2023-02-17T04:39:03;7.60;;;3.83;;
3847;SDS011;1939;48.720;9.166;2023-02-17T04:41:29;6.53;;;3.00;;
3847;SDS011;1939;48.720;9.166;2023-02-17T04:43:54;7.90;;;3.87;;
3847;SDS011;1939;48.720;9.166;2023-02-17T04:46:19;11.93;;;4.33;;
3847;SDS011;1939;48.720;9.166;2023-02-17T04:48:44;6.03;;;3.60;;
3847;SDS011;1939;48.720;9.166;2023-02-17T04:51:09;6.67;;;3.50;;
3847;SDS011;1939;48.720;9.166;2023-02-17T04:53:34;8.03;;;4.03;;
3847;SDS011;1939;48.720;9.166;2023-02-17T04:56:00;11.23;;;3.93;;
3847;SDS011;1939;48.720;9.166;2023-02-17T04:58:25;4.60;;;3.47;;
3847;SDS011;1939;48.720;9.166;2023-02-17T05:00:50;4.67;;;3.10;;
3847;SDS011;1939;48.720;9.166;2023-02-17T05:03:16;6.07;;;3.73;;
3847;SDS011;1939;48.720;9.166;2023-02-17T05:05:41;9.13;;;3.90;;
3847;SDS011;1939;48.720;9.166;2023-02-17T05:08:06;7.40;;;3.63;;
3847;SDS011;1939;48.720;9.166;2023-02-17T05:10:32;4.40;;;3.50;;
3847;SDS011;1939;48.720;9.166;2023-02-17T05:12:57;7.40;;;3.60;;
3847;SDS011;1939;48.720;9.166;2023-02-17T05:15:23;6.43;;;3.50;;
3847;SDS011;1939;48.720;9.166;2023-02-17T05:17:48;5.80;;;4.17;;
3847;SDS011;1939;48.720;9.166;2023-02-17T05:20:13;6.70;;;4.03;;
3847;SDS011;1939;48.720;9.166;2023-02-17T05:22:38;10.10;;;4.70;;
3847;SDS011;1939;48.720;9.166;2023-02-17T05:25:03;6.77;;;4.10;;
3847;SDS011;1939;48.720;9.166;2023-02-17T05:27:29;6.17;;;4.00;;
3847;SDS011;1939;48.720;9.166;2023-02-17T05:29:54;7.03;;;4.43;;
3847;SDS011;1939;48.720;9.166;2023-02-17T05:32:20;7.80;;;3.90;;
3847;SDS011;1939;48.720;9.166;2023-02-17T05:34:46;8.00;;;4.27;;
3847;SDS011;1939;48.720;9.166;2023-02-17T05:37:11;8.07;;;4.17;;
3847;SDS011;1939;48.720;9.166;2023-02-17T05:39:37;7.30;;;4.67;;
3847;SDS011;1939;48.720;9.166;2023-02-17T05:42:02;9.23;;;3.93;;
3847;SDS011;1939;48.720;9.166;2023-02-17T05:44:27;6.10;;;4.23;;
3847;SDS011;1939;48.720;9.166;2023-02-17T05:46:53;11.60;;;5.27;;
3847;SDS011;1939;48.720;9.166;2023-02-17T05:49:18;9.67;;;4.17;;
3847;SDS011;1939;48.720;9.166;2023-02-17T05:51:43;8.57;;;4.70;;
3847;SDS011;1939;48.720;9.166;2023-02-17T05:54:08;7.30;;;4.50;;
3847;SDS011;1939;48.720;9.166;2023-02-17T05:56:33;6.00;;;4.10;;
3847;SDS011;1939;48.720;9.166;2023-02-17T05:58:58;6.40;;;4.37;;
3847;SDS011;1939;48.720;9.166;2023-02-17T06:01:25;9.73;;;4.60;;
3847;SDS011;1939;48.720;9.166;2023-02-17T06:03:50;7.07;;;4.50;;
3847;SDS011;1939;48.720;9.166;2023-02-17T06:06:15;9.17;;;4.50;;
3847;SDS011;1939;48.720;9.166;2023-02-17T06:08:41;8.67;;;4.23;;
3847;SDS011;1939;48.720;9.166;2023-02-17T06:11:06;9.70;;;4.90;;
3847;SDS011;1939;48.720;9.166;2023-02-17T06:13:31;7.67;;;4.00;;
3847;SDS011;1939;48.720;9.166;2023-02-17T06:15:56;10.20;;;4.13;;
3847;SDS011;1939;48.720;9.166;2023-02-17T06:18:22;9.00;;;3.87;;
3847;SDS011;1939;48.720;9.166;2023-02-17T06:20:47;8.90;;;3.80;;
3847;SDS011;1939;48.720;9.166;2023-02-17T06:23:12;13.63;;;3.93;;
3847;SDS011;1939;48.720;9.166;2023-02-17T06:25:37;5.87;;;3.77;;
3847;SDS011;1939;48.720;9.166;2023-02-17T06:28:02;7.33;;;3.97;;
3847;SDS011;1939;48.720;9.166;2023-02-17T06:30:28;6.17;;;3.33;;
3847;SDS011;1939;48.720;9.166;2023-02-17T06:32:53;5.63;;;3.13;;
3847;SDS011;1939;48.720;9.166;2023-02-17T06:35:19;8.23;;;3.73;;
3847;SDS011;1939;48.720;9.166;2023-02-17T06:37:44;10.07;;;3.83;;
3847;SDS011;1939;48.720;9.166;2023-02-17T06:40:09;7.20;;;3.60;;
3847;SDS011;1939;48.720;9.166;2023-02-17T06:42:34;6.37;;;3.33;;
3847;SDS011;1939;48.720;9.166;2023-02-17T06:45:00;7.27;;;3.67;;
3847;SDS011;1939;48.720;9.166;2023-02-17T06:47:27;7.70;;;3.00;;
3847;SDS011;1939;48.720;9.166;2023-02-17T06:49:52;6.50;;;3.43;;
3847;SDS011;1939;48.720;9.166;2023-02-17T06:52:17;8.57;;;3.83;;
3847;SDS011;1939;48.720;9.166;2023-02-17T06:54:42;9.10;;;4.10;;
3847;SDS011;1939;48.720;9.166;2023-02-17T06:57:08;6.30;;;3.27;;
3847;SDS011;1939;48.720;9.166;2023-02-17T06:59:33;5.17;;;3.50;;
3847;SDS011;1939;48.720;9.166;2023-02-17T07:01:58;5.47;;;3.67;;
3847;SDS011;1939;48.720;9.166;2023-02-17T07:04:23;10.87;;;4.10;;
3847;SDS011;1939;48.720;9.166;2023-02-17T07:06:48;10.13;;;4.20;;
3847;SDS011;1939;48.720;9.166;2023-02-17T07:09:13;9.37;;;4.00;;
3847;SDS011;1939;48.720;9.166;2023-02-17T07:11:39;10.20;;;4.10;;
3847;SDS011;1939;48.720;9.166;2023-02-17T07:14:04;6.80;;;3.60;;
3847;SDS011;1939;48.720;9.166;2023-02-17T07:16:29;5.50;;;3.40;;
3847;SDS011;1939;48.720;9.166;2023-02-17T07:18:54;6.10;;;3.30;;
3847;SDS011;1939;48.720;9.166;2023-02-17T07:21:20;8.13;;;3.70;;
3847;SDS011;1939;48.720;9.166;2023-02-17T07:23:45;5.80;;;3.17;;
3847;SDS011;1939;48.720;9.166;2023-02-17T07:26:10;14.07;;;5.80;;
3847;SDS011;1939;48.720;9.166;2023-02-17T07:28:36;12.80;;;3.57;;
3847;SDS011;1939;48.720;9.166;2023-02-17T07:31:09;5.13;;;3.20;;
3847;SDS011;1939;48.720;9.166;2023-02-17T07:33:35;3.63;;;2.60;;
3847;SDS011;1939;48.720;9.166;2023-02-17T07:36:07;7.80;;;3.50;;
3847;SDS011;1939;48.720;9.166;2023-02-17T07:38:32;9.43;;;3.20;;
3847;SDS011;1939;48.720;9.166;2023-02-17T07:41:02;7.63;;;3.33;;
3847;SDS011;1939;48.720;9.166;2023-02-17T07:43:27;3.63;;;2.57;;
3847;SDS011;1939;48.720;9.166;2023-02-17T07:45:53;8.13;;;3.50;;
3847;SDS011;1939;48.720;9.166;2023-02-17T07:48:18;5.90;;;3.70;;
3847;SDS011;1939;48.720;9.166;2023-02-17T07:50:44;10.30;;;3.50;;
3847;SDS011;1939;48.720;9.166;2023-02-17T07:53:09;9.53;;;3.47;;
3847;SDS011;1939;48.720;9.166;2023-02-17T07:55:34;9.53;;;4.00;;
3847;SDS011;1939;48.720;9.166;2023-02-17T07:57:59;4.83;;;2.90;;
3847;SDS011;1939;48.720;9.166;2023-02-17T08:00:24;6.90;;;3.47;;
3847;SDS011;1939;48.720;9.166;2023-02-17T08:02:49;7.73;;;3.17;;
3847;SDS011;1939;48.720;9.166;2023-02-17T08:05:15;5.60;;;2.83;;
3847;SDS011;1939;48.720;9.166;2023-02-17T08:07:40;5.47;;;2.63;;
3847;SDS011;1939;48.720;9.166;2023-02-17T08:10:05;6.07;;;3.10;;
3847;SDS011;1939;48.720;9.166;2023-02-17T08:12:49;7.10;;;2.93;;
3847;SDS011;1939;48.720;9.166;2023-02-17T08:15:47;8.67;;;3.33;;
3847;SDS011;1939;48.720;9.166;2023-02-17T08:18:12;4.77;;;2.93;;
3847;SDS011;1939;48.720;9.166;2023-02-17T08:20:37;8.80;;;2.90;;
3847;SDS011;1939;48.720;9.166;2023-02-17T08:23:02;7.60;;;3.03;;
3847;SDS011;1939;48.720;9.166;2023-02-17T08:25:30;5.83;;;2.50;;
3847;SDS011;1939;48.720;9.166;2023-02-17T08:27:55;7.43;;;3.40;;
3847;SDS011;1939;48.720;9.166;2023-02-17T08:30:20;3.10;;;2.43;;
3847;SDS011;1939;48.720;9.166;2023-02-17T08:32:45;4.10;;;2.90;;
3847;SDS011;1939;48.720;9.166;2023-02-17T08:35:11;5.37;;;2.87;;
3847;SDS011;1939;48.720;9.166;2023-02-17T08:37:36;5.30;;;2.10;;
3847;SDS011;1939;48.720;9.166;2023-02-17T08:40:02;15.43;;;3.07;;
3847;SDS011;1939;48.720;9.166;2023-02-17T08:42:27;3.97;;;2.70;;
3847;SDS011;1939;48.720;9.166;2023-02-17T08:44:55;9.00;;;3.40;;
3847;SDS011;1939;48.720;9.166;2023-02-17T08:47:20;6.43;;;2.70;;
3847;SDS011;1939;48.720;9.166;2023-02-17T08:49:45;4.00;;;2.10;;
3847;SDS011;1939;48.720;9.166;2023-02-17T08:52:10;7.43;;;2.83;;
3847;SDS011;1939;48.720;9.166;2023-02-17T08:54:36;6.23;;;2.83;;
3847;SDS011;1939;48.720;9.166;2023-02-17T08:57:01;3.87;;;2.83;;
3847;SDS011;1939;48.720;9.166;2023-02-17T08:59:27;3.50;;;2.30;;
3847;SDS011;1939;48.720;9.166;2023-02-17T09:01:52;5.20;;;2.80;;
3847;SDS011;1939;48.720;9.166;2023-02-17T09:04:17;6.60;;;3.50;;
3847;SDS011;1939;48.720;9.166;2023-02-17T09:06:52;5.43;;;2.67;;
3847;SDS011;1939;48.720;9.166;2023-02-17T09:09:18;3.70;;;2.40;;
3847;SDS011;1939;48.720;9.166;2023-02-17T09:11:44;4.43;;;3.20;;
3847;SDS011;1939;48.720;9.166;2023-02-17T09:14:09;3.13;;;2.60;;
3847;SDS011;1939;48.720;9.166;2023-02-17T09:16:35;4.60;;;3.20;;
3847;SDS011;1939;48.720;9.166;2023-02-17T09:19:00;3.87;;;2.40;;
3847;SDS011;1939;48.720;9.166;2023-02-17T09:21:26;3.90;;;2.73;;
3847;SDS011;1939;48.720;9.166;2023-02-17T09:23:51;7.50;;;3.70;;
3847;SDS011;1939;48.720;9.166;2023-02-17T09:26:17;4.90;;;2.37;;
3847;SDS011;1939;48.720;9.166;2023-02-17T09:28:43;9.23;;;3.27;;
3847;SDS011;1939;48.720;9.166;2023-02-17T09:31:13;4.13;;;2.60;;
3847;SDS011;1939;48.720;9.166;2023-02-17T09:33:39;7.83;;;2.70;;
3847;SDS011;1939;48.720;9.166;2023-02-17T09:36:05;6.60;;;3.73;;
3847;SDS011;1939;48.720;9.166;2023-02-17T09:38:31;5.30;;;3.40;;
3847;SDS011;1939;48.720;9.166;2023-02-17T09:40:57;7.83;;;2.67;;
3847;SDS011;1939;48.720;9.166;2023-02-17T09:43:25;5.30;;;2.93;;
3847;SDS011;1939;48.720;9.166;2023-02-17T09:45:53;2.53;;;1.90;;
3847;SDS011;1939;48.720;9.166;2023-02-17T09:48:20;11.07;;;2.60;;
3847;SDS011;1939;48.720;9.166;2023-02-17T09:51:01;3.80;;;2.27;;
3847;SDS011;1939;48.720;9.166;2023-02-17T09:53:29;6.77;;;2.60;;
3847;SDS011;1939;48.720;9.166;2023-02-17T09:55:56;9.70;;;2.67;;
3847;SDS011;1939;48.720;9.166;2023-02-17T09:58:26;4.50;;;2.30;;
3847;SDS011;1939;48.720;9.166;2023-02-17T10:00:54;4.93;;;2.73;;
3847;SDS011;1939;48.720;9.166;2023-02-17T10:08:23;3.42;;;2.20;;
3847;SDS011;1939;48.720;9.166;2023-02-17T10:11:01;6.23;;;2.63;;
3847;SDS011;1939;48.720;9.166;2023-02-17T10:13:28;2.73;;;2.50;;
3847;SDS011;1939;48.720;9.166;2023-02-17T10:15:54;3.30;;;2.10;;
3847;SDS011;1939;48.720;9.166;2023-02-17T10:18:29;2.50;;;1.80;;
3847;SDS011;1939;48.720;9.166;2023-02-17T10:20:59;2.80;;;2.30;;
3847;SDS011;1939;48.720;9.166;2023-02-17T10:23:26;5.60;;;1.97;;
3847;SDS011;1939;48.720;9.166;2023-02-17T10:31:00;3.67;;;2.00;;
3847;SDS011;1939;48.720;9.166;2023-02-17T10:33:33;3.70;;;2.00;;
3847;SDS011;1939;48.720;9.166;2023-02-17T10:36:09;3.90;;;1.93;;
3847;SDS011;1939;48.720;9.166;2023-02-17T10:41:20;1.93;;;1.60;;
3847;SDS011;1939;48.720;9.166;2023-02-17T10:43:46;4.00;;;2.20;;
3847;SDS011;1939;48.720;9.166;2023-02-17T10:46:12;3.23;;;1.60;;
3847;SDS011;1939;48.720;9.166;2023-02-17T10:48:41;2.50;;;1.53;;
3847;SDS011;1939;48.720;9.166;2023-02-17T10:51:10;3.90;;;1.67;;
3847;SDS011;1939;48.720;9.166;2023-02-17T10:53:37;2.50;;;2.20;;
3847;SDS011;1939;48.720;9.166;2023-02-17T10:56:20;3.10;;;2.13;;
3847;SDS011;1939;48.720;9.166;2023-02-17T10:59:03;3.20;;;2.13;;
3847;SDS011;1939;48.720;9.166;2023-02-17T11:01:30;3.37;;;2.40;;
3847;SDS011;1939;48.720;9.166;2023-02-17T11:04:00;3.30;;;1.60;;
3847;SDS011;1939;48.720;9.166;2023-02-17T11:06:25;2.70;;;1.57;;
3847;SDS011;1939;48.720;9.166;2023-02-17T11:08:51;8.50;;;2.47;;
3847;SDS011;1939;48.720;9.166;2023-02-17T11:11:19;2.27;;;1.40;;
3847;SDS011;1939;48.720;9.166;2023-02-17T11:16:24;5.10;;;1.17;;
3847;SDS011;1939;48.720;9.166;2023-02-17T11:18:50;5.07;;;2.00;;
3847;SDS011;1939;48.720;9.166;2023-02-17T11:21:16;6.47;;;1.30;;
3847;SDS011;1939;48.720;9.166;2023-02-17T11:23:48;1.70;;;1.57;;
3847;SDS011;1939;48.720;9.166;2023-02-17T11:26:17;3.70;;;1.43;;
3847;SDS011;1939;48.720;9.166;2023-02-17T11:28:42;4.20;;;1.50;;
3847;SDS011;1939;48.720;9.166;2023-02-17T11:31:20;4.90;;;1.90;;
3847;SDS011;1939;48.720;9.166;2023-02-17T11:33:45;3.77;;;2.00;;
3847;SDS011;1939;48.720;9.166;2023-02-17T11:36:20;3.40;;;1.30;;
3847;SDS011;1939;48.720;9.166;2023-02-17T11:38:46;4.20;;;1.53;;
3847;SDS011;1939;48.720;9.166;2023-02-17T11:41:12;4.77;;;1.87;;
3847;SDS011;1939;48.720;9.166;2023-02-17T11:43:37;1.40;;;1.30;;
3847;SDS011;1939;48.720;9.166;2023-02-17T11:46:16;1.80;;;1.30;;
3847;SDS011;1939;48.720;9.166;2023-02-17T11:51:21;3.60;;;1.30;;
3847;SDS011;1939;48.720;9.166;2023-02-17T11:53:52;3.37;;;1.50;;
3847;SDS011;1939;48.720;9.166;2023-02-17T11:56:22;1.40;;;1.10;;
3847;SDS011;1939;48.720;9.166;2023-02-17T12:09:32;1.47;;;1.27;;
3847;SDS011;1939;48.720;9.166;2023-02-17T12:22:43;1.90;;;0.83;;
3847;SDS011;1939;48.720;9.166;2023-02-17T12:25:19;2.07;;;0.97;;
3847;SDS011;1939;48.720;9.166;2023-02-17T12:27:55;3.50;;;1.20;;
3847;SDS011;1939;48.720;9.166;2023-02-17T12:35:30;3.53;;;1.10;;
3847;SDS011;1939;48.720;9.166;2023-02-17T12:37:59;2.30;;;1.10;;
3847;SDS011;1939;48.720;9.166;2023-02-17T12:40:36;1.20;;;1.00;;
3847;SDS011;1939;48.720;9.166;2023-02-17T12:43:07;2.50;;;1.10;;
3847;SDS011;1939;48.720;9.166;2023-02-17T12:45:38;1.40;;;1.10;;
3847;SDS011;1939;48.720;9.166;2023-02-17T12:48:26;1.67;;;1.07;;
3847;SDS011;1939;48.720;9.166;2023-02-17T12:50:55;2.20;;;1.37;;
3847;SDS011;1939;48.720;9.166;2023-02-17T12:53:37;3.40;;;1.43;;
3847;SDS011;1939;48.720;9.166;2023-02-17T12:56:03;1.30;;;1.20;;
3847;SDS011;1939;48.720;9.166;2023-02-17T12:58:32;2.87;;;1.40;;
3847;SDS011;1939;48.720;9.166;2023-02-17T13:00:59;1.40;;;1.03;;
3847;SDS011;1939;48.720;9.166;2023-02-17T13:03:30;1.40;;;0.87;;
3847;SDS011;1939;48.720;9.166;2023-02-17T13:06:01;1.20;;;1.10;;
3847;SDS011;1939;48.720;9.166;2023-02-17T13:08:35;2.30;;;0.97;;
3847;SDS011;1939;48.720;9.166;2023-02-17T13:11:11;1.93;;;1.40;;
3847;SDS011;1939;48.720;9.166;2023-02-17T13:13:37;1.93;;;1.20;;
3847;SDS011;1939;48.720;9.166;2023-02-17T13:16:06;7.13;;;1.70;;
3847;SDS011;1939;48.720;9.166;2023-02-17T13:18:33;7.73;;;1.93;;
3847;SDS011;1939;48.720;9.166;2023-02-17T13:23:45;1.50;;;1.20;;
3847;SDS011;1939;48.720;9.166;2023-02-17T13:28:47;6.17;;;2.20;;
3847;SDS011;1939;48.720;9.166;2023-02-17T13:31:17;2.10;;;1.10;;
3847;SDS011;1939;48.720;9.166;2023-02-17T13:33:47;1.07;;;0.70;;
3847;SDS011;1939;48.720;9.166;2023-02-17T13:36:14;1.10;;;0.97;;
3847;SDS011;1939;48.720;9.166;2023-02-17T13:38:40;3.17;;;1.20;;
3847;SDS011;1939;48.720;9.166;2023-02-17T13:41:16;2.17;;;1.10;;
3847;SDS011;1939;48.720;9.166;2023-02-17T13:43:41;1.03;;;0.80;;
3847;SDS011;1939;48.720;9.166;2023-02-17T13:46:08;3.27;;;1.23;;
3847;SDS011;1939;48.720;9.166;2023-02-17T13:48:35;1.50;;;1.23;;
3847;SDS011;1939;48.720;9.166;2023-02-17T13:51:01;1.20;;;1.00;;
3847;SDS011;1939;48.720;9.166;2023-02-17T13:53:37;5.00;;;1.00;;
3847;SDS011;1939;48.720;9.166;2023-02-17T13:56:05;10.30;;;1.20;;
3847;SDS011;1939;48.720;9.166;2023-02-17T13:58:32;2.23;;;1.20;;
3847;SDS011;1939;48.720;9.166;2023-02-17T14:00:59;6.33;;;1.03;;
3847;SDS011;1939;48.720;9.166;2023-02-17T14:03:25;1.60;;;1.27;;
3847;SDS011;1939;48.720;9.166;2023-02-17T14:05:52;1.57;;;1.30;;
3847;SDS011;1939;48.720;9.166;2023-02-17T14:08:19;6.20;;;1.23;;
3847;SDS011;1939;48.720;9.166;2023-02-17T14:10:47;2.83;;;1.23;;
3847;SDS011;1939;48.720;9.166;2023-02-17T14:13:13;2.43;;;1.27;;
3847;SDS011;1939;48.720;9.166;2023-02-17T14:15:49;1.77;;;1.37;;
3847;SDS011;1939;48.720;9.166;2023-02-17T14:18:15;1.93;;;1.43;;
3847;SDS011;1939;48.720;9.166;2023-02-17T14:20:58;4.80;;;1.73;;
3847;SDS011;1939;48.720;9.166;2023-02-17T14:23:23;1.87;;;1.73;;
3847;SDS011;1939;48.720;9.166;2023-02-17T14:25:48;3.60;;;1.80;;
3847;SDS011;1939;48.720;9.166;2023-02-17T14:28:19;2.17;;;1.50;;
3847;SDS011;1939;48.720;9.166;2023-02-17T14:30:44;2.00;;;1.90;;
3847;SDS011;1939;48.720;9.166;2023-02-17T14:35:50;4.33;;;2.00;;
3847;SDS011;1939;48.720;9.166;2023-02-17T14:38:23;2.40;;;1.77;;
3847;SDS011;1939;48.720;9.166;2023-02-17T14:40:49;5.70;;;2.00;;
3847;SDS011;1939;48.720;9.166;2023-02-17T14:43:14;2.43;;;1.40;;
3847;SDS011;1939;48.720;9.166;2023-02-17T14:45:39;8.00;;;1.87;;
3847;SDS011;1939;48.720;9.166;2023-02-17T14:48:04;3.83;;;1.67;;
3847;SDS011;1939;48.720;9.166;2023-02-17T14:50:33;2.23;;;2.00;;
3847;SDS011;1939;48.720;9.166;2023-02-17T14:52:58;3.13;;;2.07;;
3847;SDS011;1939;48.720;9.166;2023-02-17T14:55:27;3.93;;;1.93;;
3847;SDS011;1939;48.720;9.166;2023-02-17T14:57:53;2.67;;;1.77;;
3847;SDS011;1939;48.720;9.166;2023-02-17T15:00:18;5.20;;;2.00;;
3847;SDS011;1939;48.720;9.166;2023-02-17T15:02:44;3.23;;;2.23;;
3847;SDS011;1939;48.720;9.166;2023-02-17T15:05:09;4.20;;;2.67;;
3847;SDS011;1939;48.720;9.166;2023-02-17T15:07:34;4.40;;;2.07;;
3847;SDS011;1939;48.720;9.166;2023-02-17T15:10:00;2.80;;;2.20;;
3847;SDS011;1939;48.720;9.166;2023-02-17T15:12:25;5.03;;;3.00;;
3847;SDS011;1939;48.720;9.166;2023-02-17T15:14:50;3.77;;;2.30;;
3847;SDS011;1939;48.720;9.166;2023-02-17T15:17:15;3.63;;;1.93;;
3847;SDS011;1939;48.720;9.166;2023-02-17T15:19:41;16.23;;;2.30;;
3847;SDS011;1939;48.720;9.166;2023-02-17T15:22:09;5.10;;;2.40;;
3847;SDS011;1939;48.720;9.166;2023-02-17T15:24:34;6.33;;;2.33;;
3847;SDS011;1939;48.720;9.166;2023-02-17T15:27:01;3.30;;;2.00;;
3847;SDS011;1939;48.720;9.166;2023-02-17T15:29:26;5.83;;;1.97;;
3847;SDS011;1939;48.720;9.166;2023-02-17T15:31:52;3.43;;;2.10;;
3847;SDS011;1939;48.720;9.166;2023-02-17T15:34:19;2.97;;;2.30;;
3847;SDS011;1939;48.720;9.166;2023-02-17T15:36:45;4.20;;;2.67;;
3847;SDS011;1939;48.720;9.166;2023-02-17T15:39:11;5.33;;;2.70;;
3847;SDS011;1939;48.720;9.166;2023-02-17T15:41:36;7.30;;;2.53;;
3847;SDS011;1939;48.720;9.166;2023-02-17T15:44:02;5.57;;;2.70;;
3847;SDS011;1939;48.720;9.166;2023-02-17T15:46:29;3.90;;;1.80;;
3847;SDS011;1939;48.720;9.166;2023-02-17T15:48:55;4.23;;;2.70;;
3847;SDS011;1939;48.720;9.166;2023-02-17T15:51:20;2.37;;;1.70;;
3847;SDS011;1939;48.720;9.166;2023-02-17T15:53:47;5.40;;;1.83;;
3847;SDS011;1939;48.720;9.166;2023-02-17T15:56:14;6.57;;;2.50;;
3847;SDS011;1939;48.720;9.166;2023-02-17T15:58:40;2.67;;;2.23;;
3847;SDS011;1939;48.720;9.166;2023-02-17T16:01:05;4.97;;;1.80;;
3847;SDS011;1939;48.720;9.166;2023-02-17T16:03:30;3.47;;;2.67;;
3847;SDS011;1939;48.720;9.166;2023-02-17T16:05:55;3.00;;;1.73;;
3847;SDS011;1939;48.720;9.166;2023-02-17T16:08:21;5.00;;;2.07;;
3847;SDS011;1939;48.720;9.166;2023-02-17T16:10:46;4.23;;;3.10;;
3847;SDS011;1939;48.720;9.166;2023-02-17T16:13:11;5.00;;;2.37;;
3847;SDS011;1939;48.720;9.166;2023-02-17T16:15:38;2.53;;;2.33;;
3847;SDS011;1939;48.720;9.166;2023-02-17T16:18:03;2.40;;;2.20;;
3847;SDS011;1939;48.720;9.166;2023-02-17T16:20:30;5.90;;;2.40;;
3847;SDS011;1939;48.720;9.166;2023-02-17T16:22:58;3.10;;;1.53;;